Time;durP1;ratioP1;P1;durP2;ratioP2;P2;SDS_P1;SDS_P2;PMS_P1;PMS_P2;Temp;Humidity;BMP_temperature;BMP_pressure;BME280_temperature;BME280_humidity;BME280_pressure;Samples;Min_cycle;Max_cycle;Signal;HPM_P1;HPM_P2
2023/06/11 00:00:48;;;;;;;11.70;8.15;;;24.10;99.90;;;;;;1960278;28;20046;-66
2023/06/11 00:01:45;;;;;;;12.63;8.77;;;24.00;99.90;;;;;;1960105;28;20134;-66
2023/06/11 00:02:43;;;;;;;11.60;7.72;;;24.00;99.90;;;;;;1962009;28;20035;-66
2023/06/11 00:03:42;;;;;;;13.15;8.02;;;24.00;99.90;;;;;;1962396;28;20022;-66
2023/06/11 00:04:39;;;;;;;14.43;8.65;;;24.00;99.90;;;;;;1961198;28;20060;-66
2023/06/11 00:05:37;;;;;;;17.83;9.02;;;24.00;99.90;;;;;;1956950;28;20030;-66
2023/06/11 00:06:34;;;;;;;10.25;7.97;;;24.00;99.90;;;;;;1956594;28;20475;-66
2023/06/11 00:07:32;;;;;;;10.93;8.35;;;24.00;99.90;;;;;;1958645;28;20034;-66
2023/06/11 00:08:30;;;;;;;11.35;9.18;;;24.00;99.90;;;;;;1962338;28;20065;-66
2023/06/11 00:09:27;;;;;;;14.48;8.85;;;24.00;99.90;;;;;;1958180;28;20453;-65
2023/06/11 00:10:25;;;;;;;11.55;8.93;;;24.00;99.90;;;;;;1958341;28;20074;-66
2023/06/11 00:11:22;;;;;;;13.55;7.88;;;24.00;99.90;;;;;;1959828;28;20027;-66
2023/06/11 00:12:20;;;;;;;9.57;8.38;;;24.00;99.90;;;;;;1962185;28;20113;-66
2023/06/11 00:13:17;;;;;;;14.57;8.13;;;23.90;99.90;;;;;;1960018;28;20034;-65
2023/06/11 00:14:22;;;;;;;10.90;7.95;;;24.00;99.90;;;;;;1961754;28;20508;-66
2023/06/11 00:15:19;;;;;;;11.95;7.97;;;24.10;99.90;;;;;;1957920;28;20029;-65
2023/06/11 00:16:17;;;;;;;12.40;7.95;;;24.00;99.90;;;;;;1958708;28;20484;-65
2023/06/11 00:17:14;;;;;;;11.25;7.90;;;24.00;99.90;;;;;;1962920;28;20061;-65
2023/06/11 00:18:12;;;;;;;13.50;8.40;;;24.00;99.90;;;;;;1960765;28;20587;-65
2023/06/11 00:19:09;;;;;;;9.05;7.72;;;24.00;99.90;;;;;;1963843;28;20026;-65
2023/06/11 00:20:11;;;;;;;15.15;8.25;;;24.00;99.90;;;;;;1964806;28;20049;-65
2023/06/11 00:21:09;;;;;;;;;;;24.00;99.90;;;;;;1966093;28;20034;-65
2023/06/11 00:22:08;;;;;;;10.82;8.20;;;24.00;99.90;;;;;;1961265;28;19914;-65
2023/06/11 00:23:06;;;;;;;12.43;8.10;;;24.00;99.90;;;;;;1960015;28;20030;-65
2023/06/11 00:24:04;;;;;;;13.65;8.30;;;24.00;99.90;;;;;;1961943;28;20033;-65
2023/06/11 00:25:01;;;;;;;10.82;8.10;;;24.00;99.90;;;;;;1963364;28;20384;-65
2023/06/11 00:25:59;;;;;;;13.40;8.77;;;24.00;99.90;;;;;;1959362;28;20465;-65
2023/06/11 00:26:59;;;;;;;12.30;8.50;;;24.00;99.90;;;;;;1954988;28;20029;-65
2023/06/11 00:27:57;;;;;;;10.85;8.70;;;24.00;99.90;;;;;;1963146;28;20527;-65
2023/06/11 00:28:54;;;;;;;13.50;8.30;;;24.00;99.90;;;;;;1963718;28;20040;-65
2023/06/11 00:29:53;;;;;;;13.00;8.18;;;24.00;99.90;;;;;;1961890;28;20040;-65
2023/06/11 00:30:51;;;;;;;12.80;8.25;;;24.00;99.90;;;;;;1958094;28;20654;-65
2023/06/11 00:31:48;;;;;;;10.93;7.55;;;24.00;99.90;;;;;;1958689;28;20022;-65
2023/06/11 00:32:46;;;;;;;9.45;7.82;;;24.00;99.90;;;;;;1959377;28;20026;-65
2023/06/11 00:33:43;;;;;;;11.80;7.70;;;24.00;99.90;;;;;;1959930;28;20034;-65
2023/06/11 00:34:41;;;;;;;9.98;8.00;;;24.00;99.90;;;;;;1963151;28;20068;-65
2023/06/11 00:35:38;;;;;;;15.02;8.35;;;24.10;99.90;;;;;;1959198;28;20026;-65
2023/06/11 00:36:36;;;;;;;11.77;7.97;;;24.00;99.90;;;;;;1962038;28;20472;-65
2023/06/11 00:37:34;;;;;;;12.80;8.98;;;24.00;99.90;;;;;;1959847;28;20088;-65
2023/06/11 00:38:31;;;;;;;13.65;8.50;;;24.00;99.90;;;;;;1959018;28;20041;-65
2023/06/11 00:39:29;;;;;;;14.15;8.25;;;24.00;99.90;;;;;;1960997;28;20499;-64
2023/06/11 00:40:26;;;;;;;11.85;7.50;;;24.00;99.90;;;;;;1959644;28;20042;-65
2023/06/11 00:41:24;;;;;;;10.63;7.45;;;24.00;99.90;;;;;;1962756;28;20516;-65
2023/06/11 00:42:22;;;;;;;9.95;7.85;;;24.10;99.90;;;;;;1957977;28;20034;-65
2023/06/11 00:43:21;;;;;;;11.30;7.50;;;24.00;99.90;;;;;;1971433;28;20029;-65
2023/06/11 00:44:21;;;;;;;14.98;8.90;;;24.00;99.90;;;;;;1960657;28;20030;-65
2023/06/11 00:45:19;;;;;;;12.13;8.68;;;24.00;99.90;;;;;;1954881;28;20362;-65
2023/06/11 00:46:16;;;;;;;10.57;8.10;;;23.90;99.90;;;;;;1964851;28;20072;-65
2023/06/11 00:47:15;;;;;;;11.48;7.90;;;24.00;99.90;;;;;;1961897;28;20019;-65
2023/06/11 00:48:13;;;;;;;10.82;8.07;;;24.10;99.90;;;;;;1962440;28;20033;-65
2023/06/11 00:49:11;;;;;;;11.52;7.78;;;23.90;99.90;;;;;;1963025;28;20033;-65
2023/06/11 00:50:10;;;;;;;9.73;7.97;;;24.00;99.90;;;;;;1962231;28;20033;-65
2023/06/11 00:51:07;;;;;;;11.68;7.85;;;23.60;99.90;;;;;;1965612;28;20147;-65
2023/06/11 00:52:09;;;;;;;10.32;8.55;;;24.00;99.90;;;;;;1960041;28;20556;-65
2023/06/11 00:53:06;;;;;;;12.85;8.00;;;24.00;99.90;;;;;;1950578;28;20022;-65
2023/06/11 00:54:04;;;;;;;9.77;7.72;;;24.10;99.90;;;;;;1956421;28;20035;-65
2023/06/11 00:55:02;;;;;;;10.45;7.90;;;24.00;99.90;;;;;;1959009;28;20025;-65
2023/06/11 00:56:00;;;;;;;11.63;7.82;;;24.00;99.90;;;;;;1964160;28;20030;-65
2023/06/11 00:56:57;;;;;;;12.85;7.95;;;24.00;99.90;;;;;;1962564;28;20038;-65
2023/06/11 00:57:55;;;;;;;14.20;8.05;;;24.00;99.90;;;;;;1962452;28;20037;-65
2023/06/11 00:58:53;;;;;;;9.60;7.13;;;24.00;99.90;;;;;;1967546;28;20032;-65
2023/06/11 00:59:54;;;;;;;13.30;7.53;;;24.00;99.90;;;;;;1966980;28;20028;-65
2023/06/11 01:00:54;;;;;;;18.85;7.65;;;24.00;99.90;;;;;;1963341;28;20029;-65
2023/06/11 01:02:05;;;;;;;10.02;7.47;;;24.00;99.90;;;;;;1960448;28;20046;-65
2023/06/11 01:03:07;;;;;;;11.38;7.95;;;24.10;99.90;;;;;;1957817;28;20509;-65
2023/06/11 01:04:05;;;;;;;11.48;7.97;;;24.00;99.90;;;;;;1962021;28;20099;-65
2023/06/11 01:05:03;;;;;;;11.27;7.55;;;24.00;99.90;;;;;;1965610;28;20044;-65
2023/06/11 01:06:04;;;;;;;8.98;7.60;;;24.00;99.90;;;;;;1962644;28;20018;-65
2023/06/11 01:07:05;;;;;;;11.63;7.47;;;24.00;99.90;;;;;;1956408;28;20031;-65
2023/06/11 01:08:07;;;;;;;12.60;8.02;;;24.00;99.90;;;;;;1967795;28;20029;-65
2023/06/11 01:09:04;;;;;;;11.13;8.15;;;24.00;99.90;;;;;;1958971;28;20040;-65
2023/06/11 01:10:02;;;;;;;13.98;7.47;;;24.00;99.90;;;;;;1955529;28;20026;-65
2023/06/11 01:11:01;;;;;;;14.88;8.68;;;24.00;99.90;;;;;;1957951;28;20034;-65
2023/06/11 01:11:59;;;;;;;11.38;8.45;;;24.00;99.90;;;;;;1962874;28;20022;-65
2023/06/11 01:12:57;;;;;;;12.93;7.43;;;24.00;99.90;;;;;;1964097;28;20109;-65
2023/06/11 01:13:54;;;;;;;12.25;7.40;;;24.00;99.90;;;;;;1964601;28;20031;-65
2023/06/11 01:14:52;;;;;;;14.77;7.97;;;24.00;99.90;;;;;;1961097;28;20026;-65
2023/06/11 01:15:50;;;;;;;10.52;7.75;;;24.00;99.90;;;;;;1959127;28;20417;-65
2023/06/11 01:16:53;;;;;;;13.60;7.35;;;24.00;99.90;;;;;;1964803;28;20124;-65
2023/06/11 01:17:55;;;;;;;11.95;7.80;;;24.00;99.90;;;;;;1951089;28;20030;-65
2023/06/11 01:19:03;;;;;;;12.85;7.47;;;24.00;99.90;;;;;;1943519;28;20031;-65
2023/06/11 01:20:34;;;;;;;11.18;8.02;;;24.00;99.90;;;;;;1956560;28;20575;-65
2023/06/11 01:21:36;;;;;;;8.90;8.00;;;24.00;99.90;;;;;;1962724;28;20053;-65
2023/06/11 01:22:41;;;;;;;;;;;24.00;99.90;;;;;;1958762;28;20424;-65
2023/06/11 01:23:46;;;;;;;9.95;7.80;;;24.00;99.90;;;;;;1963410;28;19906;-65
2023/06/11 01:24:58;;;;;;;10.93;7.95;;;24.00;99.90;;;;;;1957904;28;20626;-65
2023/06/11 01:26:26;;;;;;;10.45;7.35;;;24.00;99.90;;;;;;1948674;28;20493;-65
2023/06/11 01:28:01;;;;;;;16.33;8.00;;;24.00;99.90;;;;;;1959964;28;22641;-65
2023/06/11 01:28:58;;;;;;;8.60;7.05;;;24.00;99.90;;;;;;1957138;28;20531;-65
2023/06/11 01:29:56;;;;;;;12.30;7.97;;;24.00;99.90;;;;;;1966825;28;20041;-65
2023/06/11 01:30:55;;;;;;;14.50;7.60;;;24.00;99.90;;;;;;1963591;28;20029;-65
2023/06/11 01:31:53;;;;;;;9.73;7.40;;;24.00;99.90;;;;;;1961379;28;20058;-65
2023/06/11 01:32:55;;;;;;;8.77;7.50;;;24.00;99.90;;;;;;1958124;28;20137;-65
2023/06/11 01:33:53;;;;;;;11.88;7.57;;;24.00;99.90;;;;;;1957863;28;20015;-65
2023/06/11 01:34:50;;;;;;;12.25;7.30;;;24.00;99.90;;;;;;1956717;28;20503;-65
2023/06/11 01:35:48;;;;;;;11.27;7.65;;;24.00;99.90;;;;;;1958752;28;20041;-65
2023/06/11 01:36:46;;;;;;;11.38;7.45;;;24.00;99.90;;;;;;1957312;28;20062;-65
2023/06/11 01:37:45;;;;;;;10.05;7.57;;;24.00;99.90;;;;;;1964983;28;20025;-65
2023/06/11 01:38:44;;;;;;;12.65;7.60;;;24.00;99.90;;;;;;1959695;28;20085;-65
2023/06/11 01:39:45;;;;;;;11.88;7.68;;;24.00;99.90;;;;;;1957454;28;20099;-65
2023/06/11 01:40:43;;;;;;;12.77;8.68;;;24.00;99.90;;;;;;1962650;28;20138;-65
2023/06/11 01:41:40;;;;;;;10.85;7.65;;;24.00;99.90;;;;;;1959516;28;20025;-65
2023/06/11 01:42:38;;;;;;;11.02;7.97;;;24.00;99.90;;;;;;1964540;28;20041;-65
2023/06/11 01:43:35;;;;;;;9.75;7.60;;;24.00;99.90;;;;;;1956347;28;20489;-65
2023/06/11 01:44:33;;;;;;;14.82;8.07;;;24.00;99.90;;;;;;1967392;28;20026;-65
2023/06/11 01:45:32;;;;;;;11.55;7.45;;;24.00;99.90;;;;;;1965222;28;20036;-64
2023/06/11 01:46:30;;;;;;;8.98;7.10;;;24.00;99.90;;;;;;1958514;28;20018;-65
2023/06/11 01:47:27;;;;;;;11.18;7.28;;;24.00;99.90;;;;;;1962453;28;20018;-65
2023/06/11 01:48:25;;;;;;;10.13;7.03;;;24.00;99.90;;;;;;1964903;28;20030;-65
2023/06/11 01:49:22;;;;;;;12.70;6.97;;;24.00;99.90;;;;;;1963104;28;20026;-65
2023/06/11 01:50:20;;;;;;;13.52;7.55;;;24.00;99.90;;;;;;1959966;28;20061;-65
2023/06/11 01:51:20;;;;;;;11.00;7.68;;;24.00;99.90;;;;;;1961904;28;20607;-65
2023/06/11 01:52:18;;;;;;;10.23;6.70;;;24.00;99.90;;;;;;1961477;28;20105;-65
2023/06/11 01:53:16;;;;;;;10.27;7.80;;;23.90;99.90;;;;;;1962989;28;20353;-65
2023/06/11 01:54:14;;;;;;;13.23;7.78;;;23.90;99.90;;;;;;1958952;28;20025;-65
2023/06/11 01:55:12;;;;;;;10.05;6.55;;;24.10;99.90;;;;;;1963798;28;20033;-65
2023/06/11 01:56:10;;;;;;;10.65;7.22;;;24.00;99.90;;;;;;1958450;28;20505;-65
2023/06/11 01:57:07;;;;;;;14.18;7.13;;;24.00;99.90;;;;;;1965269;28;20026;-65
2023/06/11 01:58:05;;;;;;;10.27;6.80;;;24.10;99.90;;;;;;1965500;28;20081;-65
2023/06/11 01:59:02;;;;;;;11.25;7.85;;;24.00;99.90;;;;;;1957364;28;20556;-65
2023/06/11 02:00:00;;;;;;;8.77;7.05;;;24.00;99.90;;;;;;1956238;28;20038;-65
2023/06/11 02:00:58;;;;;;;9.02;7.20;;;24.00;99.90;;;;;;1958292;28;20042;-65
2023/06/11 02:01:56;;;;;;;9.55;6.95;;;24.00;99.90;;;;;;1961419;28;20523;-65
2023/06/11 02:02:54;;;;;;;10.65;7.32;;;24.00;99.90;;;;;;1957337;28;20025;-65
2023/06/11 02:03:51;;;;;;;12.60;7.90;;;24.00;99.90;;;;;;1957991;28;20084;-65
2023/06/11 02:04:49;;;;;;;11.43;7.32;;;24.00;99.90;;;;;;1957821;28;20038;-65
2023/06/11 02:05:47;;;;;;;8.73;7.35;;;24.00;99.90;;;;;;1961216;28;20607;-65
2023/06/11 02:06:45;;;;;;;12.23;7.78;;;24.00;99.90;;;;;;1962138;28;20040;-65
2023/06/11 02:07:42;;;;;;;9.02;7.10;;;24.10;99.90;;;;;;1960027;28;20037;-65
2023/06/11 02:08:40;;;;;;;12.23;7.57;;;24.00;99.90;;;;;;1956917;28;20167;-64
2023/06/11 02:09:38;;;;;;;8.00;7.05;;;24.00;99.90;;;;;;1956511;28;20034;-65
2023/06/11 02:10:36;;;;;;;8.82;7.20;;;24.00;99.90;;;;;;1962812;28;20029;-65
2023/06/11 02:11:33;;;;;;;9.43;6.90;;;24.00;99.90;;;;;;1962174;28;20400;-65
2023/06/11 02:12:31;;;;;;;9.63;6.93;;;24.00;99.90;;;;;;1964044;28;20022;-65
2023/06/11 02:13:30;;;;;;;9.63;7.72;;;24.00;99.90;;;;;;1959906;28;20029;-65
2023/06/11 02:14:28;;;;;;;10.27;7.25;;;24.00;99.90;;;;;;1961071;28;20357;-65
2023/06/11 02:15:25;;;;;;;8.70;7.20;;;24.00;99.90;;;;;;1959475;28;20034;-65
2023/06/11 02:16:23;;;;;;;10.27;7.35;;;24.00;99.90;;;;;;1958134;28;20418;-65
2023/06/11 02:17:20;;;;;;;11.60;7.50;;;24.00;99.90;;;;;;1964011;28;20033;-65
2023/06/11 02:18:18;;;;;;;12.10;7.28;;;24.00;99.90;;;;;;1965866;28;20052;-65
2023/06/11 02:19:15;;;;;;;13.68;7.30;;;24.00;99.90;;;;;;1958587;28;20491;-65
2023/06/11 02:20:15;;;;;;;8.57;6.82;;;24.00;99.90;;;;;;1956668;28;20030;-65
2023/06/11 02:21:12;;;;;;;7.72;6.88;;;24.00;99.90;;;;;;1957347;28;20025;-65
2023/06/11 02:22:10;;;;;;;9.38;7.07;;;24.00;99.90;;;;;;1958339;28;20018;-65
2023/06/11 02:23:07;;;;;;;9.57;7.47;;;24.00;99.90;;;;;;1958524;28;20045;-65
2023/06/11 02:24:05;;;;;;;10.52;7.38;;;24.00;99.90;;;;;;1960214;28;20030;-65
2023/06/11 02:25:03;;;;;;;8.52;7.25;;;24.00;99.90;;;;;;1964501;28;20115;-65
2023/06/11 02:26:00;;;;;;;8.40;7.18;;;24.00;99.90;;;;;;1955149;28;20046;-65
2023/06/11 02:26:58;;;;;;;12.13;7.35;;;24.00;99.90;;;;;;1959380;28;20030;-65
2023/06/11 02:27:55;;;;;;;8.63;7.18;;;24.10;99.90;;;;;;1957271;28;20037;-65
2023/06/11 02:28:53;;;;;;;9.90;7.10;;;24.00;99.90;;;;;;1959122;28;20023;-65
2023/06/11 02:29:50;;;;;;;11.75;7.28;;;24.00;99.90;;;;;;1963613;28;20109;-65
2023/06/11 02:30:48;;;;;;;9.57;6.72;;;24.00;99.90;;;;;;1961796;28;20030;-65
2023/06/11 02:31:45;;;;;;;8.82;7.75;;;24.00;99.90;;;;;;1965702;28;20029;-65
2023/06/11 02:32:44;;;;;;;11.40;7.40;;;24.00;99.90;;;;;;1959789;28;20601;-65
2023/06/11 02:33:41;;;;;;;8.70;7.60;;;24.00;99.90;;;;;;1952100;28;20568;-65
2023/06/11 02:34:39;;;;;;;8.57;6.80;;;24.10;99.90;;;;;;1953625;28;20035;-65
2023/06/11 02:35:36;;;;;;;10.18;7.43;;;24.00;99.90;;;;;;1954325;28;20030;-65
2023/06/11 02:36:34;;;;;;;8.57;7.30;;;24.00;99.90;;;;;;1960033;28;20031;-65
2023/06/11 02:37:32;;;;;;;9.40;7.95;;;24.00;99.90;;;;;;1959949;28;20018;-65
2023/06/11 02:38:29;;;;;;;8.50;6.93;;;24.00;99.90;;;;;;1955512;28;20451;-65
2023/06/11 02:39:27;;;;;;;9.05;7.30;;;24.00;99.90;;;;;;1959735;28;20053;-65
2023/06/11 02:40:24;;;;;;;9.65;6.90;;;24.00;99.90;;;;;;1961328;28;20034;-65
2023/06/11 02:41:22;;;;;;;8.63;7.30;;;24.00;99.90;;;;;;1952041;28;21282;-65
2023/06/11 02:42:19;;;;;;;9.50;7.18;;;24.00;99.90;;;;;;1953827;28;20031;-65
2023/06/11 02:43:17;;;;;;;9.57;7.20;;;24.00;99.90;;;;;;1960061;28;20032;-65
2023/06/11 02:44:14;;;;;;;10.68;7.30;;;23.90;99.90;;;;;;1960388;28;20041;-65
2023/06/11 02:45:12;;;;;;;8.85;6.75;;;24.00;99.90;;;;;;1960296;28;20432;-65
2023/06/11 02:46:09;;;;;;;9.15;7.32;;;24.00;99.90;;;;;;1960816;28;20029;-65
2023/06/11 02:47:07;;;;;;;9.27;6.90;;;24.00;99.90;;;;;;1961551;28;20554;-65
2023/06/11 02:48:05;;;;;;;8.93;6.55;;;24.00;99.90;;;;;;1967881;28;20112;-65
2023/06/11 02:49:02;;;;;;;11.18;6.85;;;24.00;99.90;;;;;;1960096;28;20048;-64
2023/06/11 02:50:00;;;;;;;9.68;6.75;;;24.00;99.90;;;;;;1961736;28;20032;-65
2023/06/11 02:50:57;;;;;;;7.82;6.68;;;24.00;99.90;;;;;;1959684;28;20037;-65
2023/06/11 02:51:55;;;;;;;13.95;6.75;;;24.00;99.90;;;;;;1959720;28;20041;-65
2023/06/11 02:52:52;;;;;;;9.95;6.68;;;24.00;99.90;;;;;;1961183;28;20026;-65
2023/06/11 02:53:50;;;;;;;9.38;7.07;;;23.90;99.90;;;;;;1965017;28;20021;-65
2023/06/11 02:54:47;;;;;;;10.35;7.32;;;24.00;99.90;;;;;;1962747;28;20053;-65
2023/06/11 02:55:45;;;;;;;9.25;7.43;;;24.00;99.90;;;;;;1958237;28;20049;-65
2023/06/11 02:56:43;;;;;;;9.65;6.93;;;24.00;99.90;;;;;;1960788;28;20022;-64
2023/06/11 02:57:40;;;;;;;8.70;7.13;;;24.00;99.90;;;;;;1956023;28;20026;-64
2023/06/11 02:58:38;;;;;;;8.20;6.53;;;24.00;99.90;;;;;;1960353;28;20023;-65
2023/06/11 02:59:35;;;;;;;11.93;7.25;;;24.00;99.90;;;;;;1964050;28;20041;-65
2023/06/11 03:00:33;;;;;;;8.43;6.55;;;24.00;99.90;;;;;;1968196;28;21149;-65
2023/06/11 03:01:30;;;;;;;11.05;7.30;;;24.10;99.90;;;;;;1956208;28;20049;-65
2023/06/11 03:02:28;;;;;;;10.75;6.65;;;24.00;99.90;;;;;;1963773;28;20025;-65
2023/06/11 03:03:25;;;;;;;8.77;6.78;;;23.90;99.90;;;;;;1962591;28;20152;-65
2023/06/11 03:04:23;;;;;;;10.25;7.00;;;24.00;99.90;;;;;;1961174;28;20034;-64
2023/06/11 03:05:20;;;;;;;9.82;7.25;;;24.00;99.90;;;;;;1959350;28;20034;-65
2023/06/11 03:06:18;;;;;;;8.25;6.45;;;24.00;99.90;;;;;;1962714;28;20021;-65
2023/06/11 03:07:16;;;;;;;10.20;7.07;;;24.00;99.90;;;;;;1959959;28;20080;-65
2023/06/11 03:08:13;;;;;;;10.70;7.15;;;23.90;99.90;;;;;;1962817;28;20031;-64
2023/06/11 03:09:11;;;;;;;7.15;6.50;;;24.00;99.90;;;;;;1962613;28;20109;-65
2023/06/11 03:10:09;;;;;;;12.68;7.18;;;24.10;99.90;;;;;;1965432;28;20026;-65
2023/06/11 03:11:06;;;;;;;8.80;6.93;;;24.00;99.90;;;;;;1958587;28;20039;-65
2023/06/11 03:12:05;;;;;;;8.27;7.28;;;24.00;99.90;;;;;;1959151;28;20031;-65
2023/06/11 03:13:03;;;;;;;8.43;7.40;;;24.00;99.90;;;;;;1957269;28;20046;-64
2023/06/11 03:14:01;;;;;;;9.63;6.93;;;24.00;99.90;;;;;;1962520;28;20018;-65
2023/06/11 03:14:58;;;;;;;9.35;7.00;;;24.00;99.90;;;;;;1958880;28;20093;-65
2023/06/11 03:15:56;;;;;;;7.88;6.88;;;24.00;99.90;;;;;;1960111;28;20027;-65
2023/06/11 03:16:54;;;;;;;10.23;7.25;;;24.00;99.90;;;;;;1957780;28;20064;-65
2023/06/11 03:17:51;;;;;;;9.25;7.10;;;24.00;99.90;;;;;;1965035;28;20030;-65
2023/06/11 03:18:49;;;;;;;8.23;7.13;;;24.00;99.90;;;;;;1967336;28;20029;-65
2023/06/11 03:19:46;;;;;;;8.20;7.35;;;24.00;99.90;;;;;;1959803;28;20044;-65
2023/06/11 03:20:44;;;;;;;11.73;6.90;;;24.00;99.90;;;;;;1958652;28;20079;-65
2023/06/11 03:21:41;;;;;;;8.93;7.43;;;23.90;99.90;;;;;;1956775;28;20080;-65
2023/06/11 03:22:39;;;;;;;7.53;6.43;;;24.00;99.90;;;;;;1958906;28;20026;-65
2023/06/11 03:23:37;;;;;;;8.15;7.15;;;24.00;99.90;;;;;;1964176;28;20038;-65
2023/06/11 03:24:34;;;;;;;10.30;7.25;;;24.00;99.90;;;;;;1959496;28;20137;-65
2023/06/11 03:25:32;;;;;;;10.20;6.35;;;24.00;99.90;;;;;;1955807;28;20065;-65
2023/06/11 03:26:29;;;;;;;8.38;6.55;;;24.00;99.90;;;;;;1958751;28;20052;-65
2023/06/11 03:27:27;;;;;;;9.85;7.03;;;24.00;99.90;;;;;;1959499;28;20069;-64
2023/06/11 03:28:26;;;;;;;7.80;6.90;;;23.90;99.90;;;;;;1956999;28;20042;-64
2023/06/11 03:29:23;;;;;;;7.18;6.22;;;24.00;99.90;;;;;;1962359;28;20108;-65
2023/06/11 03:30:21;;;;;;;8.90;6.82;;;24.00;99.90;;;;;;1958568;28;20030;-65
2023/06/11 03:31:18;;;;;;;7.95;6.97;;;24.00;99.90;;;;;;1963537;28;20114;-65
2023/06/11 03:32:16;;;;;;;8.02;6.78;;;24.00;99.90;;;;;;1960934;28;20076;-65
2023/06/11 03:33:13;;;;;;;9.25;6.90;;;24.00;99.90;;;;;;1960103;28;20085;-65
2023/06/11 03:34:11;;;;;;;9.65;6.57;;;24.00;99.90;;;;;;1958768;28;20042;-65
2023/06/11 03:35:08;;;;;;;8.48;6.45;;;24.00;99.90;;;;;;1963606;28;20026;-65
2023/06/11 03:36:06;;;;;;;10.02;6.72;;;24.00;99.90;;;;;;1959419;28;20038;-65
2023/06/11 03:37:04;;;;;;;6.90;6.18;;;24.00;99.90;;;;;;1957739;28;20034;-65
2023/06/11 03:38:01;;;;;;;8.32;6.57;;;24.00;99.90;;;;;;1962158;28;20030;-65
2023/06/11 03:38:59;;;;;;;9.73;6.88;;;24.00;99.90;;;;;;1962430;28;20033;-65
2023/06/11 03:39:56;;;;;;;8.30;7.07;;;24.00;99.90;;;;;;1958827;28;20127;-65
2023/06/11 03:40:54;;;;;;;7.47;6.47;;;24.00;99.90;;;;;;1957543;28;20033;-65
2023/06/11 03:41:51;;;;;;;8.98;7.10;;;24.00;99.90;;;;;;1966935;28;20470;-65
2023/06/11 03:42:49;;;;;;;7.90;6.63;;;23.90;99.90;;;;;;1966061;28;20379;-65
2023/06/11 03:43:46;;;;;;;9.50;6.85;;;24.00;99.90;;;;;;1958531;28;20687;-65
2023/06/11 03:44:44;;;;;;;7.03;6.30;;;24.00;99.90;;;;;;1957593;28;20027;-65
2023/06/11 03:45:42;;;;;;;7.88;6.47;;;24.00;99.90;;;;;;1959803;28;20022;-65
2023/06/11 03:46:39;;;;;;;8.60;6.45;;;23.90;99.90;;;;;;1959421;28;20030;-64
2023/06/11 03:47:37;;;;;;;7.28;6.15;;;24.00;99.90;;;;;;1961340;28;20031;-65
2023/06/11 03:48:34;;;;;;;6.78;6.07;;;24.00;99.90;;;;;;1960655;28;20032;-65
2023/06/11 03:49:32;;;;;;;7.63;6.35;;;24.00;99.90;;;;;;1967309;28;20073;-65
2023/06/11 03:50:30;;;;;;;7.50;6.50;;;24.00;99.90;;;;;;1964182;28;20029;-65
2023/06/11 03:51:27;;;;;;;6.93;6.22;;;24.00;99.90;;;;;;1966294;28;20030;-65
2023/06/11 03:52:25;;;;;;;10.70;7.22;;;24.00;99.90;;;;;;1961072;28;20053;-64
2023/06/11 03:53:22;;;;;;;8.73;6.68;;;24.00;99.90;;;;;;1957566;28;20030;-65
2023/06/11 03:54:20;;;;;;;7.55;6.53;;;24.00;99.90;;;;;;1958425;28;20035;-65
2023/06/11 03:55:17;;;;;;;8.18;7.00;;;23.90;99.90;;;;;;1956460;28;21856;-65
2023/06/11 03:56:15;;;;;;;7.95;6.72;;;24.00;99.90;;;;;;1960858;28;20153;-65
2023/06/11 03:57:12;;;;;;;7.28;6.45;;;24.00;99.90;;;;;;1962601;28;20037;-65
2023/06/11 03:58:10;;;;;;;7.15;6.55;;;24.00;99.90;;;;;;1962176;28;20108;-65
2023/06/11 03:59:07;;;;;;;6.88;6.10;;;24.00;99.90;;;;;;1956777;28;20697;-65
2023/06/11 04:00:06;;;;;;;8.65;6.93;;;24.00;99.90;;;;;;1956197;28;20101;-65
2023/06/11 04:01:03;;;;;;;9.90;6.43;;;24.00;99.90;;;;;;1964222;28;20053;-65
2023/06/11 04:02:01;;;;;;;8.82;6.93;;;24.00;99.90;;;;;;1957549;28;20026;-65
2023/06/11 04:02:59;;;;;;;8.10;6.22;;;24.00;99.90;;;;;;1960794;28;20029;-65
2023/06/11 04:03:57;;;;;;;9.82;6.45;;;24.10;99.90;;;;;;1965180;28;20041;-65
2023/06/11 04:04:55;;;;;;;8.85;6.53;;;24.00;99.90;;;;;;1965074;28;20484;-65
2023/06/11 04:05:52;;;;;;;8.00;6.53;;;24.00;99.90;;;;;;1961387;28;20024;-65
2023/06/11 04:06:50;;;;;;;8.60;7.05;;;24.00;99.90;;;;;;1959440;28;20058;-65
2023/06/11 04:07:47;;;;;;;9.65;7.15;;;24.00;99.90;;;;;;1960165;28;20026;-65
2023/06/11 04:08:45;;;;;;;7.50;6.70;;;23.90;99.90;;;;;;1961256;28;20041;-65
2023/06/11 04:09:42;;;;;;;7.13;6.50;;;24.00;99.90;;;;;;1962639;28;20081;-65
2023/06/11 04:10:40;;;;;;;7.10;6.40;;;23.90;99.90;;;;;;1962964;28;20535;-65
2023/06/11 04:11:37;;;;;;;7.78;6.32;;;24.00;99.90;;;;;;1963701;28;20037;-65
2023/06/11 04:12:35;;;;;;;9.73;6.38;;;24.00;99.90;;;;;;1958744;28;20021;-65
2023/06/11 04:13:32;;;;;;;7.60;6.68;;;24.00;99.90;;;;;;1954362;28;20026;-64
2023/06/11 04:14:30;;;;;;;7.95;6.32;;;24.00;99.90;;;;;;1958167;28;20018;-65
2023/06/11 04:15:27;;;;;;;10.70;6.72;;;24.20;99.90;;;;;;1955122;28;20513;-64
2023/06/11 04:16:25;;;;;;;8.95;6.10;;;24.00;99.90;;;;;;1965120;28;20044;-65
2023/06/11 04:17:22;;;;;;;7.15;6.45;;;24.00;99.90;;;;;;1956004;28;20490;-65
2023/06/11 04:18:20;;;;;;;8.10;6.22;;;24.00;99.90;;;;;;1957706;28;20056;-65
2023/06/11 04:19:18;;;;;;;14.55;6.95;;;23.90;99.90;;;;;;1962624;28;20104;-65
2023/06/11 04:20:15;;;;;;;7.55;6.15;;;23.90;99.90;;;;;;1964794;28;20037;-64
2023/06/11 04:21:13;;;;;;;7.95;6.53;;;24.00;99.90;;;;;;1958423;28;20035;-65
2023/06/11 04:22:11;;;;;;;7.45;6.32;;;24.00;99.90;;;;;;1964025;28;20029;-65
2023/06/11 04:23:08;;;;;;;6.90;6.20;;;24.00;99.90;;;;;;1956966;28;20108;-65
2023/06/11 04:24:06;;;;;;;6.72;6.03;;;24.00;99.90;;;;;;1957364;28;20603;-65
2023/06/11 04:25:04;;;;;;;8.00;6.35;;;24.00;99.90;;;;;;1962998;28;20030;-65
2023/06/11 04:26:02;;;;;;;8.20;6.45;;;24.00;99.90;;;;;;1965284;28;20018;-65
2023/06/11 04:26:59;;;;;;;8.52;6.78;;;24.00;99.90;;;;;;1962061;28;20026;-65
2023/06/11 04:27:57;;;;;;;7.30;6.43;;;24.00;99.90;;;;;;1963401;28;20125;-65
2023/06/11 04:28:56;;;;;;;9.85;6.80;;;24.00;99.90;;;;;;1965548;28;20105;-65
2023/06/11 04:29:56;;;;;;;8.40;6.93;;;23.90;99.90;;;;;;1964483;28;20090;-65
2023/06/11 04:30:57;;;;;;;8.93;6.30;;;23.90;99.90;;;;;;1962457;28;20361;-65
2023/06/11 04:31:54;;;;;;;8.35;6.78;;;24.00;99.90;;;;;;1957326;28;20113;-65
2023/06/11 04:32:55;;;;;;;7.85;6.20;;;24.00;99.90;;;;;;1963456;28;20026;-65
2023/06/11 04:33:55;;;;;;;8.23;6.80;;;24.00;99.90;;;;;;1957672;28;20505;-65
2023/06/11 04:34:56;;;;;;;8.40;6.82;;;24.00;99.90;;;;;;1959414;28;20036;-65
2023/06/11 04:35:56;;;;;;;8.73;7.00;;;23.90;99.90;;;;;;1964102;28;20022;-65
2023/06/11 04:36:54;;;;;;;8.38;6.65;;;24.00;99.90;;;;;;1965742;28;20625;-65
2023/06/11 04:37:52;;;;;;;8.75;6.45;;;23.90;99.90;;;;;;1958012;28;20026;-65
2023/06/11 04:38:51;;;;;;;7.07;6.32;;;24.00;99.90;;;;;;1960698;28;20022;-65
2023/06/11 04:39:48;;;;;;;7.32;6.63;;;24.00;99.90;;;;;;1967409;28;20136;-65
2023/06/11 04:40:46;;;;;;;7.00;6.07;;;24.00;99.90;;;;;;1964064;28;20560;-65
2023/06/11 04:41:43;;;;;;;7.57;6.50;;;24.00;99.90;;;;;;1957245;28;20121;-65
2023/06/11 04:42:41;;;;;;;6.88;6.18;;;24.00;99.90;;;;;;1958422;28;20052;-65
2023/06/11 04:43:39;;;;;;;7.25;6.55;;;23.90;99.90;;;;;;1959618;28;20040;-65
2023/06/11 04:44:38;;;;;;;6.30;5.70;;;24.00;99.90;;;;;;1962041;28;20058;-65
2023/06/11 04:45:36;;;;;;;6.85;6.25;;;24.00;99.90;;;;;;1963948;28;20485;-65
2023/06/11 04:46:34;;;;;;;6.50;5.90;;;24.00;99.90;;;;;;1960454;28;20037;-65
2023/06/11 04:47:33;;;;;;;6.82;6.22;;;23.90;99.90;;;;;;1964541;28;20464;-65
2023/06/11 04:48:34;;;;;;;7.28;6.30;;;23.90;99.90;;;;;;1953264;28;20038;-65
2023/06/11 04:49:32;;;;;;;6.30;5.72;;;23.90;99.90;;;;;;1954250;28;20069;-65
2023/06/11 04:50:31;;;;;;;6.88;6.22;;;24.00;99.90;;;;;;1957691;28;20042;-64
2023/06/11 04:51:32;;;;;;;7.43;6.20;;;24.00;99.90;;;;;;1963782;28;20472;-65
2023/06/11 04:52:42;;;;;;;6.78;5.40;;;24.00;99.90;;;;;;1963515;28;20018;-65
2023/06/11 04:53:40;;;;;;;6.50;5.93;;;24.00;99.90;;;;;;1961194;28;20022;-65
2023/06/11 04:54:41;;;;;;;7.20;6.43;;;24.00;99.90;;;;;;1962592;28;20038;-65
2023/06/11 04:55:40;;;;;;;9.00;6.43;;;23.90;99.90;;;;;;1962282;28;20539;-65
2023/06/11 04:56:38;;;;;;;7.22;6.47;;;24.00;99.90;;;;;;1968105;28;20021;-65
2023/06/11 04:57:36;;;;;;;9.43;6.50;;;24.00;99.90;;;;;;1967192;28;20033;-65
2023/06/11 04:58:34;;;;;;;6.93;6.15;;;23.90;99.90;;;;;;1962124;28;20019;-65
2023/06/11 04:59:32;;;;;;;8.68;6.38;;;24.00;99.90;;;;;;1960816;28;20079;-65
2023/06/11 05:00:30;;;;;;;8.50;6.47;;;23.90;99.90;;;;;;1961233;28;20062;-65
2023/06/11 05:01:32;;;;;;;6.35;5.57;;;24.00;99.90;;;;;;1960072;28;20045;-65
2023/06/11 05:02:29;;;;;;;8.23;6.60;;;24.00;99.90;;;;;;1964661;28;20022;-65
2023/06/11 05:03:29;;;;;;;8.00;6.03;;;23.90;99.90;;;;;;1962769;28;20026;-65